aviador You're here:

KGGW Decoded Metar

GLASGOW in MT, USA
Report Time2018-01-23 03:53:00
UTC Time2018-01-23 04:06:01
Flight Rules vfr VFR
Wind250° at 06 kt
W.Decomp.*RWY 26: 5.6 kt HW 2.2 kt LCW
RWY 30: 2.9 kt HW 5.2 kt LCW
W.Rank250° ranks 19
Current wind is below 250° avg. (7.4)
Visibility9999 m
Phenomena:N/A
Clouds:N/A
Expected CloudBase > 1,200 ft AGL from Temp-Dew spread
CeilingNone
Temp-8°C (ISA -18)
Dew Point-11°C (79% RH)
AAT-13.3°C
QNH1016 hPa
Density Alt-66 ft
Elevation2,277 ft
Report Wrong Elevation
Raw Report
METAR KGGW 230353Z AUTO 25006KT 10SM CLR M08/M11 A2999 RMK AO2 SLP203
T10781106=

Extra information for KGGW:More info

Metar Taf Metar & Taf Last 4 Metars F.Rules Stats Wind Profile Meteogram Temp Stats Airport Information Weather charts Add Link Nearby VenuesMetar ALERT Operation Metar Decoded Social comments

AIRNAV info for KGGW